Ras Al Khaimah International Airport
OMRK : now visible

Airfield :











YOU CAN JOIN US ON...

 
LOGIN :

Register | Disclaimer

   EN    FR    IT 

 









Legend :    VFR   Marginal VFR   IFR   Intensive IFR   Very Intensive IFR
Visi :
Ceiling :
>= 8 km
>= 3000ft
5 to 8 km
1000 to 3000 ft
1500m to 5 km
500 to 1000 ft
800 to 1500m
200 to 500 ft
< 800m
< 200 ft
Symbols :   Thunderstorms  Fog  Heavy snow  Heavy precipitations  Wind > 20 kt






- Airport Elevation : 102 ft
- IATA code : RKT


OMRK - Ras Al Khaimah International

CURRENT METAR :
  • 281500Z 35004KT CAVOK 18/11 Q1019 A3011

EXPIRED METARs :
  • 281400Z 33006KT CAVOK 19/11 Q1019 A3011
  • 281300Z 34009KT 310V010 CAVOK 20/10 Q1019 A3010

TAF TAF OMRK
Valid from the 28 at 12:00 until the 29 at 18:00 UTC


281102Z 2812/2918 34010KT 9999 FEW040
BECMG 2814/2816 VRB02KT
BECMG 2910/2912 33010KT
BECMG 2914/2916 VRB02KT



MET'MAP, your aeronautical weather chart ! - Copyright ORBIFLY December 2007 - Disclaimer

ORBIFLY MET'MAP TEAM :

Programming & Development : Alexandra Zaïnal
Concept & original design : Baudouin d'Aumeries
Assistance for programming : Marc-Olivier Méhu
Technical & hardware support : Manuel Goepfert

Contact : metmap@orbifly.com




SOURCES & CREDITS :

   NOAA       Earth
Advisory